createdAt,value
2022-11-29T00:01:44.528Z,101379.28
2022-11-29T00:03:46.530Z,101393.81
2022-11-29T00:05:48.388Z,101382.03
2022-11-29T00:07:50.254Z,101382.03
2022-11-29T00:09:52.161Z,101389.50
2022-11-29T00:12:12.594Z,101394.69
2022-11-29T00:14:17.373Z,101395.44
2022-11-29T00:16:19.210Z,101391.63
2022-11-29T00:18:21.084Z,101389.84
2022-11-29T00:20:23.007Z,101386.66
2022-11-29T00:22:25.677Z,101389.09
2022-11-29T00:24:27.833Z,101385.28
2022-11-29T00:26:29.722Z,101394.16
2022-11-29T00:28:31.636Z,101386.56
2022-11-29T00:30:33.504Z,101389.84
2022-11-29T00:32:35.912Z,101382.53
2022-11-29T00:34:37.809Z,101378.97
2022-11-29T00:36:39.785Z,101388.31
2022-11-29T00:38:42.242Z,101377.19
2022-11-29T00:40:44.100Z,101387.31
2022-11-29T00:42:45.943Z,101385.03
2022-11-29T00:44:47.769Z,101381.50
2022-11-29T00:46:49.780Z,101371.63
2022-11-29T00:48:51.635Z,101380.72
2022-11-29T00:50:53.566Z,101366.06
2022-11-29T00:52:56.392Z,101376.09
2022-11-29T00:54:58.269Z,101375.69
2022-11-29T00:57:00.196Z,101369.09
2022-11-29T00:59:02.012Z,101371.63
2022-11-29T01:01:05.135Z,101379.09
2022-11-29T01:03:07.443Z,101364.91
2022-11-29T01:05:09.446Z,101360.50
2022-11-29T01:07:11.707Z,101358.75
2022-11-29T01:09:13.521Z,101358.97
2022-11-29T01:11:19.452Z,101364.69
2022-11-29T01:13:21.427Z,101361.00
2022-11-29T01:15:23.377Z,101359.50
2022-11-29T01:17:25.263Z,101359.25
2022-11-29T01:19:27.102Z,101352.41
2022-11-29T01:21:29.519Z,101354.44
2022-11-29T01:23:31.756Z,101351.16
2022-11-29T01:25:33.631Z,101348.50
2022-11-29T01:27:36.195Z,101345.84
2022-11-29T01:29:39.015Z,101345.19
2022-11-29T01:31:40.848Z,101348.63
2022-11-29T01:33:43.071Z,101341.03
2022-11-29T01:35:53.624Z,101334.44
2022-11-29T01:37:55.518Z,101335.72
2022-11-29T01:39:58.378Z,101335.31
2022-11-29T01:42:01.178Z,101332.44
2022-11-29T01:44:07.845Z,101336.19
2022-11-29T01:46:12.002Z,101337.72
2022-11-29T01:48:14.773Z,101333.66
2022-11-29T01:50:17.302Z,101329.47
2022-11-29T01:52:28.847Z,101334.19
2022-11-29T01:54:32.488Z,101325.72
2022-11-29T01:56:35.428Z,101319.88
2022-11-29T01:58:37.435Z,101333.44
2022-11-29T02:00:39.327Z,101332.00
2022-11-29T02:03:09.468Z,101332.13
2022-11-29T02:05:14.143Z,101326.72
2022-11-29T02:07:16.492Z,101331.56
2022-11-29T02:09:21.310Z,101332.66
2022-11-29T02:11:42.434Z,101321.78
2022-11-29T02:13:56.429Z,101322.53
2022-11-29T02:16:24.719Z,101335.69
2022-11-29T02:19:14.314Z,101337.72
2022-11-29T02:21:53.390Z,101338.50
2022-11-29T02:24:07.691Z,101345.19
2022-11-29T02:26:46.534Z,101336.72
2022-11-29T02:29:29.964Z,101334.44
2022-11-29T02:31:50.139Z,101337.84
2022-11-29T02:34:09.614Z,101346.84
2022-11-29T02:36:49.509Z,101341.47
2022-11-29T02:38:54.122Z,101348.31
2022-11-29T02:41:18.085Z,101346.31
2022-11-29T02:43:44.539Z,101343.66
2022-11-29T02:46:12.915Z,101350.50
2022-11-29T02:48:17.562Z,101346.97
2022-11-29T02:50:44.726Z,101348.31
2022-11-29T02:53:18.473Z,101348.06
2022-11-29T02:55:33.540Z,101344.56
2022-11-29T02:57:56.078Z,101346.09
2022-11-29T03:00:06.926Z,101348.56
2022-11-29T03:02:47.506Z,101363.72
2022-11-29T03:04:55.281Z,101351.72
2022-11-29T03:07:34.170Z,101356.66
2022-11-29T03:10:12.931Z,101358.44
2022-11-29T03:12:41.892Z,101358.66
2022-11-29T03:14:46.926Z,101362.94
2022-11-29T03:17:05.607Z,101355.91
2022-11-29T03:19:31.236Z,101352.72
2022-11-29T03:21:46.095Z,101348.31
2022-11-29T03:23:51.208Z,101344.38
2022-11-29T03:26:10.932Z,101345.88
2022-11-29T03:28:37.146Z,101352.59
2022-11-29T03:30:44.823Z,101352.59
2022-11-29T03:33:10.633Z,101358.91
2022-11-29T03:35:22.877Z,101361.34
2022-11-29T03:37:45.767Z,101353.75
2022-11-29T03:40:21.941Z,101356.66
2022-11-29T03:42:36.101Z,101362.72
2022-11-29T03:45:09.376Z,101357.44
2022-11-29T03:47:23.159Z,101367.91
2022-11-29T03:49:53.552Z,101371.19
2022-11-29T03:52:21.528Z,101365.47
2022-11-29T03:54:38.570Z,101362.59
2022-11-29T03:56:41.087Z,101368.78
2022-11-29T03:59:35.019Z,101372.31
2022-11-29T04:01:57.079Z,101380.44
2022-11-29T04:04:30.227Z,101378.13
2022-11-29T04:06:53.432Z,101371.31
2022-11-29T04:09:23.231Z,101380.31
2022-11-29T04:11:55.168Z,101381.56
2022-11-29T04:14:09.937Z,101387.50
2022-11-29T04:16:31.938Z,101383.50
2022-11-29T04:18:54.316Z,101381.22
2022-11-29T04:21:15.763Z,101380.66
2022-11-29T04:23:46.954Z,101394.97
2022-11-29T04:26:21.611Z,101391.78
2022-11-29T04:28:41.585Z,101393.22
2022-11-29T04:30:58.166Z,101391.44
2022-11-29T04:33:37.816Z,101385.63
2022-11-29T04:36:00.808Z,101385.50
2022-11-29T04:38:27.720Z,101385.38
2022-11-29T04:40:39.934Z,101390.97
2022-11-29T04:42:57.149Z,101385.50
2022-11-29T04:45:40.695Z,101389.03
2022-11-29T04:47:58.731Z,101391.06
2022-11-29T04:50:24.070Z,101392.09
2022-11-29T04:52:37.796Z,101394.75
2022-11-29T04:54:57.305Z,101402.22
2022-11-29T04:57:31.387Z,101402.75
2022-11-29T05:00:10.144Z,101406.38
2022-11-29T05:02:34.605Z,101400.56
2022-11-29T05:04:48.316Z,101412.31
2022-11-29T05:07:06.431Z,101404.75
2022-11-29T05:10:01.200Z,101412.31
2022-11-29T05:12:41.876Z,101410.56
2022-11-29T05:14:58.706Z,101413.84
2022-11-29T05:17:53.114Z,101415.63
2022-11-29T05:20:15.326Z,101417.53
2022-11-29T05:22:34.428Z,101421.69
2022-11-29T05:24:51.132Z,101417.94
2022-11-29T05:27:15.413Z,101421.56
2022-11-29T05:29:54.876Z,101425.53
2022-11-29T05:32:18.485Z,101427.50
2022-11-29T05:34:38.402Z,101432.56
2022-11-29T05:36:52.442Z,101437.75
2022-11-29T05:39:15.390Z,101427.78
2022-11-29T05:41:20.211Z,101440.28
2022-11-29T05:44:03.612Z,101432.81
2022-11-29T05:46:16.294Z,101435.97
2022-11-29T05:48:21.779Z,101440.16
2022-11-29T05:50:28.851Z,101442.31
2022-11-29T05:52:59.211Z,101451.88
2022-11-29T05:55:34.981Z,101450.63
2022-11-29T05:57:55.433Z,101456.72
2022-11-29T05:59:59.775Z,101457.06
2022-11-29T06:02:11.328Z,101460.13
2022-11-29T06:04:20.259Z,101464.16
2022-11-29T06:06:43.875Z,101468.72
2022-11-29T06:08:57.554Z,101466.47
2022-11-29T06:11:31.517Z,101469.13
2022-11-29T06:14:02.799Z,101473.53
2022-11-29T06:16:29.116Z,101465.81
2022-11-29T06:19:12.175Z,101467.72
2022-11-29T06:21:34.716Z,101477.09
2022-11-29T06:23:59.060Z,101479.84
2022-11-29T06:26:38.228Z,101471.38
2022-11-29T06:29:02.038Z,101485.91
2022-11-29T06:31:27.168Z,101474.13
2022-11-29T06:33:45.345Z,101472.47
2022-11-29T06:36:25.636Z,101480.72
2022-11-29T06:38:30.052Z,101483.09
2022-11-29T06:40:37.972Z,101481.22
2022-11-29T06:42:40.932Z,101482.88
2022-11-29T06:44:44.351Z,101480.84
2022-11-29T06:47:09.197Z,101492.06
2022-11-29T06:49:34.807Z,101493.22
2022-11-29T06:52:04.360Z,101483.59
2022-11-29T06:54:20.003Z,101495.53
2022-11-29T06:57:07.858Z,101493.00
2022-11-29T06:59:47.713Z,101498.16
2022-11-29T07:02:12.731Z,101497.13
2022-11-29T07:04:45.430Z,101496.63
2022-11-29T07:06:53.083Z,101502.56
2022-11-29T07:09:13.512Z,101505.88
2022-11-29T07:11:16.299Z,101505.34
2022-11-29T07:13:19.246Z,101503.06
2022-11-29T07:15:23.610Z,101508.13
2022-11-29T07:17:44.925Z,101503.06
2022-11-29T07:20:28.222Z,101501.66
2022-11-29T07:22:35.913Z,101506.47
2022-11-29T07:25:03.500Z,101505.81
2022-11-29T07:27:25.270Z,101509.34
2022-11-29T07:30:05.395Z,101511.78
2022-11-29T07:32:19.703Z,101517.72
2022-11-29T07:34:39.719Z,101506.06
2022-11-29T07:37:06.421Z,101518.72
2022-11-29T07:39:46.637Z,101517.44
2022-11-29T07:42:28.049Z,101518.19
2022-11-29T07:44:39.412Z,101521.50
2022-11-29T07:46:43.549Z,101530.97
2022-11-29T07:48:45.564Z,101524.16
2022-11-29T07:51:03.092Z,101524.16
2022-11-29T07:53:17.317Z,101532.75
2022-11-29T07:55:26.989Z,101522.72
2022-11-29T07:57:28.907Z,101528.56
2022-11-29T07:59:32.807Z,101526.78
2022-11-29T08:01:41.588Z,101523.97
2022-11-29T08:03:55.804Z,101524.97
2022-11-29T08:05:57.697Z,101530.22
2022-11-29T08:07:59.834Z,101518.66
2022-11-29T08:10:14.714Z,101517.25
2022-11-29T08:12:18.662Z,101522.81
2022-11-29T08:14:20.549Z,101518.84
2022-11-29T08:16:30.029Z,101523.91
2022-11-29T08:18:42.186Z,101518.44
2022-11-29T08:20:51.495Z,101521.28
2022-11-29T08:23:21.255Z,101522.59
2022-11-29T08:25:30.066Z,101518.84
2022-11-29T08:27:35.081Z,101523.25
2022-11-29T08:29:37.413Z,101525.91
2022-11-29T08:31:43.961Z,101521.94
2022-11-29T08:33:47.697Z,101526.78
2022-11-29T08:35:50.000Z,101525.03
2022-11-29T08:37:52.696Z,101537.78
2022-11-29T08:39:56.464Z,101531.19
2022-11-29T08:42:03.903Z,101532.31
2022-11-29T08:44:07.023Z,101536.09
2022-11-29T08:46:18.906Z,101532.13
2022-11-29T08:48:22.222Z,101534.09
2022-11-29T08:50:24.943Z,101530.53
2022-11-29T08:52:46.544Z,101531.81
2022-11-29T08:54:48.751Z,101533.03
2022-11-29T08:57:37.430Z,101528.34
2022-11-29T08:59:15.016Z,101531.53
2022-11-29T09:01:22.132Z,101527.31
2022-11-29T09:03:42.615Z,101525.13
2022-11-29T09:05:44.531Z,101522.44
2022-11-29T09:07:52.794Z,101519.34
2022-11-29T09:10:08.323Z,101520.75
2022-11-29T09:12:11.472Z,101526.94
2022-11-29T09:14:22.535Z,101518.25
2022-11-29T09:16:27.960Z,101522.97
2022-11-29T09:18:30.304Z,101529.50
2022-11-29T09:20:35.181Z,101524.84
2022-11-29T09:22:38.612Z,101521.78
2022-11-29T09:24:43.671Z,101521.03
2022-11-29T09:26:51.503Z,101512.66
2022-11-29T09:28:58.385Z,101515.97
2022-11-29T09:31:15.121Z,101520.91
2022-11-29T09:33:17.734Z,101524.47
2022-11-29T09:35:35.427Z,101523.59
2022-11-29T09:37:47.056Z,101516.72
2022-11-29T09:39:51.899Z,101523.00
2022-11-29T09:42:21.111Z,101514.44
2022-11-29T09:45:01.536Z,101514.00
2022-11-29T09:47:33.264Z,101522.47
2022-11-29T09:50:12.522Z,101518.94
2022-11-29T09:52:51.603Z,101519.28
2022-11-29T09:55:38.195Z,101518.28
2022-11-29T09:57:44.128Z,101518.94
2022-11-29T09:59:53.660Z,101509.06
2022-11-29T10:02:21.667Z,101511.69
2022-11-29T10:04:32.657Z,101509.94
2022-11-29T10:07:11.416Z,101506.31
2022-11-29T10:09:50.644Z,101518.22
2022-11-29T10:11:58.572Z,101508.63
2022-11-29T10:14:20.530Z,101509.75
2022-11-29T10:16:34.819Z,101509.31
2022-11-29T10:19:01.150Z,101512.59
2022-11-29T10:21:12.904Z,101509.50
2022-11-29T10:23:43.505Z,101499.28
2022-11-29T10:25:54.026Z,101515.03
2022-11-29T10:27:55.990Z,101504.88
2022-11-29T10:30:06.559Z,101516.59
2022-11-29T10:32:32.325Z,101509.31
2022-11-29T10:34:34.378Z,101510.50
2022-11-29T10:36:53.038Z,101507.31
2022-11-29T10:39:03.108Z,101506.88
2022-11-29T10:41:10.393Z,101510.63
2022-11-29T10:43:19.254Z,101510.84
2022-11-29T10:45:40.732Z,101513.03
2022-11-29T10:47:47.339Z,101509.19
2022-11-29T10:49:49.280Z,101505.03
2022-11-29T10:51:51.139Z,101520.25
2022-11-29T10:53:54.933Z,101513.03
2022-11-29T10:56:00.439Z,101521.66
2022-11-29T10:58:26.276Z,101519.25
2022-11-29T11:00:42.386Z,101521.00
2022-11-29T11:02:45.350Z,101517.25
2022-11-29T11:04:48.751Z,101521.78
2022-11-29T11:07:06.396Z,101521.00
2022-11-29T11:09:31.098Z,101519.78
2022-11-29T11:11:33.933Z,101524.84
2022-11-29T11:13:41.147Z,101526.59
2022-11-29T11:16:08.977Z,101527.38
2022-11-29T11:18:21.816Z,101537.53
2022-11-29T11:20:26.325Z,101526.06
2022-11-29T11:22:40.131Z,101528.59
2022-11-29T11:24:45.048Z,101521.00
2022-11-29T11:26:49.392Z,101520.53
2022-11-29T11:29:02.494Z,101520.13
2022-11-29T11:31:09.940Z,101513.16
2022-11-29T11:33:34.436Z,101521.22
2022-11-29T11:35:44.091Z,101527.28
2022-11-29T11:37:56.881Z,101517.47
2022-11-29T11:40:25.909Z,101522.31
2022-11-29T11:42:39.214Z,101518.66
2022-11-29T11:44:57.909Z,101515.25
2022-11-29T11:47:02.073Z,101524.38
2022-11-29T11:49:13.274Z,101521.09
2022-11-29T11:51:24.819Z,101532.34
2022-11-29T11:53:35.911Z,101538.28
2022-11-29T11:55:47.159Z,101533.00
2022-11-29T11:58:09.259Z,101530.34
2022-11-29T12:00:55.773Z,101530.25
2022-11-29T12:02:59.186Z,101526.94
2022-11-29T12:05:05.181Z,101530.59
2022-11-29T12:07:45.004Z,101530.69
2022-11-29T12:10:02.166Z,101532.25
2022-11-29T12:12:26.127Z,101536.84
2022-11-29T12:15:06.389Z,101535.97
2022-11-29T12:17:28.604Z,101537.06
2022-11-29T12:19:43.533Z,101534.97
2022-11-29T12:21:59.943Z,101533.97
2022-11-29T12:24:53.269Z,101536.84
2022-11-29T12:27:03.333Z,101548.75
2022-11-29T12:29:17.082Z,101539.03
2022-11-29T12:31:34.050Z,101549.53
2022-11-29T12:33:47.495Z,101549.84
2022-11-29T12:36:14.144Z,101559.75
2022-11-29T12:38:41.700Z,101548.06
2022-11-29T12:41:20.294Z,101552.25
2022-11-29T12:43:57.311Z,101546.09
2022-11-29T12:46:11.141Z,101555.97
2022-11-29T12:48:55.248Z,101553.22
2022-11-29T12:51:31.871Z,101555.09
2022-11-29T12:54:00.882Z,101561.28
2022-11-29T12:56:36.456Z,101567.13
2022-11-29T12:59:22.694Z,101556.22
2022-11-29T13:02:10.969Z,101567.03
2022-11-29T13:04:36.504Z,101570.22
2022-11-29T13:07:06.115Z,101565.00
2022-11-29T13:09:29.578Z,101568.66
2022-11-29T13:12:06.238Z,101567.91
2022-11-29T13:14:43.341Z,101567.69
2022-11-29T13:16:59.242Z,101573.28
2022-11-29T13:19:22.073Z,101575.50
2022-11-29T13:21:53.259Z,101575.81
2022-11-29T13:24:11.369Z,101579.56
2022-11-29T13:26:28.070Z,101587.16
2022-11-29T13:28:34.865Z,101581.88
2022-11-29T13:30:41.399Z,101586.16
2022-11-29T13:32:52.289Z,101590.59
2022-11-29T13:35:27.061Z,101590.50
2022-11-29T13:37:43.711Z,101597.31
2022-11-29T13:40:22.225Z,101595.81
2022-11-29T13:42:55.798Z,101591.88
2022-11-29T13:45:08.319Z,101600.16
2022-11-29T13:47:17.390Z,101599.72
2022-11-29T13:49:45.172Z,101600.72
2022-11-29T13:52:05.765Z,101599.63
2022-11-29T13:54:32.780Z,101602.69
2022-11-29T13:56:46.741Z,101589.78
2022-11-29T13:59:01.166Z,101594.72
2022-11-29T14:01:27.027Z,101587.47
2022-11-29T14:03:43.295Z,101593.84
2022-11-29T14:06:00.259Z,101584.69
2022-11-29T14:09:10.385Z,101583.03
2022-11-29T14:11:08.747Z,101594.41
2022-11-29T14:13:14.659Z,101585.06
2022-11-29T14:15:35.443Z,101589.19
2022-11-29T14:17:52.284Z,101589.13
2022-11-29T14:20:36.231Z,101591.66
2022-11-29T14:23:14.044Z,101585.41
2022-11-29T14:25:50.620Z,101586.94
2022-11-29T14:27:56.865Z,101590.25
2022-11-29T14:29:59.929Z,101589.09
2022-11-29T14:32:24.042Z,101596.56
2022-11-29T14:34:35.329Z,101593.38
2022-11-29T14:37:12.015Z,101583.75
2022-11-29T14:39:22.945Z,101588.06
2022-11-29T14:42:00.019Z,101595.91
2022-11-29T14:44:26.090Z,101599.22
2022-11-29T14:46:31.931Z,101597.69
2022-11-29T14:49:00.542Z,101590.09
2022-11-29T14:51:10.710Z,101592.88
2022-11-29T14:53:46.383Z,101590.47
2022-11-29T14:56:35.447Z,101593.16
2022-11-29T14:58:37.644Z,101586.41
2022-11-29T15:00:49.922Z,101593.88
2022-11-29T15:03:10.339Z,101588.31
2022-11-29T15:05:33.838Z,101597.69
2022-11-29T15:07:55.109Z,101599.22
2022-11-29T15:10:18.481Z,101599.97
2022-11-29T15:12:35.657Z,101607.28
2022-11-29T15:14:43.681Z,101603.72
2022-11-29T15:16:49.900Z,101600.44
2022-11-29T15:19:13.528Z,101605.28
2022-11-29T15:21:19.965Z,101616.41
2022-11-29T15:23:22.137Z,101603.72
2022-11-29T15:25:32.127Z,101615.22
2022-11-29T15:28:08.862Z,101610.06
2022-11-29T15:30:29.341Z,101618.19
2022-11-29T15:32:39.133Z,101615.75
2022-11-29T15:34:50.436Z,101613.00
2022-11-29T15:37:02.906Z,101617.19
2022-11-29T15:39:35.613Z,101617.69
2022-11-29T15:41:55.661Z,101625.00
2022-11-29T15:44:03.872Z,101619.59
2022-11-29T15:46:24.633Z,101628.72
2022-11-29T15:48:35.616Z,101631.72
2022-11-29T15:51:08.729Z,101627.84
2022-11-29T15:53:21.881Z,101630.84
2022-11-29T15:55:26.530Z,101642.41
2022-11-29T15:57:50.953Z,101642.75
2022-11-29T16:00:05.919Z,101646.81
2022-11-29T16:02:37.341Z,101648.97
2022-11-29T16:04:46.504Z,101643.31
2022-11-29T16:06:50.482Z,101639.13
2022-11-29T16:09:19.384Z,101644.41
2022-11-29T16:11:29.496Z,101633.16
2022-11-29T16:13:39.138Z,101641.75
2022-11-29T16:15:48.098Z,101630.06
2022-11-29T16:17:52.524Z,101635.06
2022-11-29T16:20:23.871Z,101636.44
2022-11-29T16:22:36.917Z,101641.66
2022-11-29T16:24:53.125Z,101638.97
2022-11-29T16:27:00.179Z,101636.81
2022-11-29T16:29:24.947Z,101639.47
2022-11-29T16:31:35.959Z,101641.22
2022-11-29T16:33:38.182Z,101641.75
2022-11-29T16:35:40.526Z,101640.50
2022-11-29T16:37:44.675Z,101645.34
2022-11-29T16:39:49.420Z,101650.13
2022-11-29T16:42:19.433Z,101638.97
2022-11-29T16:44:47.272Z,101639.47
2022-11-29T16:46:50.230Z,101647.94
2022-11-29T16:48:54.988Z,101647.81
2022-11-29T16:51:15.216Z,101643.41
2022-11-29T16:53:37.743Z,101645.94
2022-11-29T16:55:40.010Z,101649.13
2022-11-29T16:57:44.600Z,101658.75
2022-11-29T16:59:47.460Z,101653.31
2022-11-29T17:01:50.250Z,101650.34
2022-11-29T17:03:53.503Z,101655.97
2022-11-29T17:05:55.645Z,101651.88
2022-11-29T17:07:58.056Z,101661.28
2022-11-29T17:10:01.465Z,101665.34
2022-11-29T17:12:03.899Z,101666.13
2022-11-29T17:14:06.267Z,101670.16
2022-11-29T17:16:13.505Z,101665.34
2022-11-29T17:18:15.561Z,101667.88
2022-11-29T17:20:18.694Z,101672.16
2022-11-29T17:22:20.716Z,101669.63
2022-11-29T17:24:24.537Z,101664.97
2022-11-29T17:26:29.036Z,101665.84
2022-11-29T17:28:31.044Z,101672.94
2022-11-29T17:30:33.379Z,101667.88
2022-11-29T17:32:38.783Z,101664.31
2022-11-29T17:34:45.100Z,101670.03
2022-11-29T17:36:47.655Z,101673.72
2022-11-29T17:38:50.719Z,101679.94
2022-11-29T17:40:52.732Z,101684.47
2022-11-29T17:42:55.997Z,101673.81
2022-11-29T17:44:58.196Z,101682.84
2022-11-29T17:47:00.347Z,101675.03
2022-11-29T17:49:05.551Z,101681.13
2022-11-29T17:51:28.781Z,101680.75
2022-11-29T17:53:31.971Z,101687.91
2022-11-29T17:55:34.330Z,101677.91
2022-11-29T17:57:37.647Z,101687.91
2022-11-29T17:59:39.916Z,101684.13
2022-11-29T18:01:42.442Z,101683.22
2022-11-29T18:03:47.309Z,101681.47
2022-11-29T18:05:49.787Z,101690.56
2022-11-29T18:08:00.757Z,101686.75
2022-11-29T18:10:03.220Z,101686.00
2022-11-29T18:12:06.331Z,101694.50
2022-11-29T18:14:11.009Z,101684.00
2022-11-29T18:16:16.594Z,101690.81
2022-11-29T18:18:24.709Z,101694.91
2022-11-29T18:20:27.273Z,101694.91
2022-11-29T18:22:29.449Z,101694.75
2022-11-29T18:24:32.819Z,101693.97
2022-11-29T18:26:37.219Z,101691.34
2022-11-29T18:28:40.933Z,101689.34
2022-11-29T18:30:43.380Z,101685.03
2022-11-29T18:32:49.007Z,101689.56
2022-11-29T18:34:52.394Z,101692.38
2022-11-29T18:36:54.379Z,101691.09
2022-11-29T18:39:02.089Z,101695.28
2022-11-29T18:41:11.362Z,101693.88
2022-11-29T18:43:17.300Z,101694.25
2022-11-29T18:45:19.715Z,101689.84
2022-11-29T18:47:21.710Z,101693.34
2022-11-29T18:49:24.042Z,101692.09
2022-11-29T18:51:28.032Z,101692.22
2022-11-29T18:53:30.552Z,101693.88
2022-11-29T18:55:35.641Z,101691.34
2022-11-29T18:57:38.049Z,101689.69
2022-11-29T18:59:40.507Z,101692.22
2022-11-29T19:01:45.322Z,101693.63
2022-11-29T19:03:51.699Z,101693.34
2022-11-29T19:05:54.553Z,101698.19
2022-11-29T19:07:56.848Z,101697.28
2022-11-29T19:09:59.378Z,101693.75
2022-11-29T19:12:04.363Z,101708.06
2022-11-29T19:14:11.965Z,101706.28
2022-11-29T19:16:18.058Z,101708.06
2022-11-29T19:18:20.761Z,101709.09
2022-11-29T19:20:23.116Z,101703.88
2022-11-29T19:22:25.601Z,101708.31
2022-11-29T19:24:30.314Z,101710.09
2022-11-29T19:26:33.757Z,101710.09
2022-11-29T19:28:38.457Z,101713.50
2022-11-29T19:30:41.244Z,101702.38
2022-11-29T19:32:49.749Z,101707.44
2022-11-29T19:34:53.498Z,101716.78
2022-11-29T19:36:55.993Z,101714.38
2022-11-29T19:39:01.281Z,101712.91
2022-11-29T19:41:22.238Z,101719.31
2022-11-29T19:43:27.010Z,101715.91
2022-11-29T19:45:29.443Z,101717.31
2022-11-29T19:47:38.843Z,101731.88
2022-11-29T19:49:44.786Z,101725.91
2022-11-29T19:51:51.380Z,101724.00
2022-11-29T19:53:55.691Z,101726.44
2022-11-29T19:55:59.746Z,101733.41
2022-11-29T19:58:01.761Z,101726.31
2022-11-29T20:00:05.471Z,101730.72
2022-11-29T20:02:07.893Z,101728.97
2022-11-29T20:04:13.114Z,101730.88
2022-11-29T20:06:15.938Z,101738.47
2022-11-29T20:08:21.282Z,101739.97
2022-11-29T20:10:26.821Z,101740.13
2022-11-29T20:12:30.889Z,101741.72
2022-11-29T20:14:33.287Z,101735.94
2022-11-29T20:16:39.311Z,101739.75
2022-11-29T20:18:48.933Z,101744.03
2022-11-29T20:21:07.259Z,101742.38
2022-11-29T20:23:10.097Z,101746.56
2022-11-29T20:25:13.797Z,101747.72
2022-11-29T20:27:15.833Z,101746.81
2022-11-29T20:29:19.888Z,101743.28
2022-11-29T20:31:23.650Z,101740.63
2022-11-29T20:33:26.434Z,101749.34
2022-11-29T20:35:29.276Z,101748.59
2022-11-29T20:37:53.881Z,101751.38
2022-11-29T20:40:11.790Z,101742.00
2022-11-29T20:42:31.680Z,101749.59
2022-11-29T20:44:51.058Z,101753.66
2022-11-29T20:46:56.000Z,101755.94
2022-11-29T20:49:04.832Z,101748.34
2022-11-29T20:51:17.535Z,101751.97
2022-11-29T20:53:40.771Z,101750.06
2022-11-29T20:55:47.981Z,101750.16
2022-11-29T20:57:56.211Z,101748.66
2022-11-29T20:59:59.055Z,101742.47
2022-11-29T21:02:03.183Z,101753.13
2022-11-29T21:04:23.151Z,101749.28
2022-11-29T21:06:25.802Z,101750.94
2022-11-29T21:08:28.532Z,101755.13
2022-11-29T21:10:49.032Z,101751.31
2022-11-29T21:12:51.437Z,101741.94
2022-11-29T21:14:59.780Z,101751.84
2022-11-29T21:17:18.550Z,101759.19
2022-11-29T21:19:27.332Z,101760.00
2022-11-29T21:21:49.414Z,101764.56
2022-11-29T21:23:59.722Z,101756.19
2022-11-29T21:26:21.241Z,101758.34
2022-11-29T21:28:30.686Z,101771.78
2022-11-29T21:30:36.142Z,101758.22
2022-11-29T21:32:38.433Z,101760.75
2022-11-29T21:34:45.833Z,101766.56
2022-11-29T21:36:59.235Z,101761.41
2022-11-29T21:39:05.135Z,101763.78
2022-11-29T21:41:26.687Z,101758.88
2022-11-29T21:43:57.938Z,101761.25
2022-11-29T21:45:57.452Z,101768.63
2022-11-29T21:48:02.257Z,101772.91
2022-11-29T21:50:04.541Z,101775.94
2022-11-29T21:52:15.403Z,101774.56
2022-11-29T21:54:28.543Z,101772.53
2022-11-29T21:56:38.724Z,101776.31
2022-11-29T21:58:45.910Z,101777.47
2022-11-29T22:00:54.746Z,101785.31
2022-11-29T22:03:26.585Z,101783.28
2022-11-29T22:05:46.952Z,101787.59
2022-11-29T22:07:56.626Z,101786.97
2022-11-29T22:13:20.456Z,101792.66
2022-11-29T22:15:25.018Z,101794.06
2022-11-29T22:17:28.303Z,101792.38
2022-11-29T22:19:33.846Z,101790.63
2022-11-29T22:21:42.142Z,101793.41
2022-11-29T22:23:44.081Z,101787.31
2022-11-29T22:25:52.269Z,101783.66
2022-11-29T22:27:55.225Z,101794.16
2022-11-29T22:30:01.209Z,101789.09
2022-11-29T22:32:09.212Z,101790.63
2022-11-29T22:34:11.653Z,101794.16
2022-11-29T22:36:13.637Z,101797.97
2022-11-29T22:38:20.121Z,101792.78
2022-11-29T22:40:30.112Z,101794.69
2022-11-29T22:42:44.316Z,101783.03
2022-11-29T22:44:46.570Z,101794.28
2022-11-29T22:47:02.739Z,101790.63
2022-11-29T22:49:10.901Z,101784.31
2022-11-29T22:51:34.380Z,101784.56
2022-11-29T22:53:39.190Z,101776.19
2022-11-29T22:55:50.709Z,101786.31
2022-11-29T22:58:01.512Z,101773.78
2022-11-29T23:00:07.339Z,101786.31
2022-11-29T23:02:17.155Z,101783.41
2022-11-29T23:04:30.062Z,101779.25
2022-11-29T23:06:37.445Z,101783.41
2022-11-29T23:08:42.722Z,101776.19
2022-11-29T23:10:55.133Z,101775.94
2022-11-29T23:12:57.098Z,101770.00
2022-11-29T23:15:02.271Z,101778.09
2022-11-29T23:17:04.538Z,101772.78
2022-11-29T23:19:08.465Z,101766.47
2022-11-29T23:21:24.673Z,101774.19
2022-11-29T23:23:35.065Z,101767.09
2022-11-29T23:25:36.944Z,101759.00
2022-11-29T23:27:38.781Z,101758.72
2022-11-29T23:29:40.635Z,101755.19
2022-11-29T23:31:49.723Z,101762.28
2022-11-29T23:33:54.826Z,101760.13
2022-11-29T23:36:01.671Z,101762.66
2022-11-29T23:38:03.665Z,101760.78
2022-11-29T23:40:15.470Z,101758.47
2022-11-29T23:42:17.195Z,101750.66
2022-11-29T23:44:19.068Z,101744.81
2022-11-29T23:46:24.552Z,101752.66
2022-11-29T23:48:28.464Z,101752.41
2022-11-29T23:50:31.313Z,101746.59
2022-11-29T23:52:35.193Z,101750.13
2022-11-29T23:54:38.034Z,101748.75
2022-11-29T23:56:39.908Z,101746.59
2022-11-29T23:58:43.892Z,101746.34
